Time;durP1;ratioP1;P1;durP2;ratioP2;P2;SDS_P1;SDS_P2;PMS_P1;PMS_P2;Temp;Humidity;BMP_temperature;BMP_pressure;BME280_temperature;BME280_humidity;BME280_pressure;Samples;Min_cycle;Max_cycle;Signal;HPM_P1;HPM_P2
2021/04/23 00:01:19;;;;;;;17.88;5.05;;;;;;;2.66;100.00;98459.25;5006007;28;20047;-76
2021/04/23 00:03:54;;;;;;;19.98;5.07;;;;;;;2.62;100.00;98453.59;4966908;28;20570;-76
2021/04/23 00:06:24;;;;;;;18.48;4.75;;;;;;;2.64;100.00;98472.84;4980373;28;20058;-77
2021/04/23 00:08:59;;;;;;;15.93;4.22;;;;;;;2.64;100.00;98462.16;5004978;28;20045;-78
2021/04/23 00:11:33;;;;;;;20.50;3.80;;;;;;;2.70;100.00;98463.88;4996947;28;20046;-75
2021/04/23 00:14:00;;;;;;;16.85;4.65;;;;;;;2.64;100.00;98456.00;5005783;28;20348;-76
2021/04/23 00:16:26;;;;;;;15.93;4.03;;;;;;;2.65;100.00;98462.97;4993485;28;20105;-77
2021/04/23 00:18:53;;;;;;;13.70;4.40;;;;;;;2.59;100.00;98458.59;5007757;28;20046;-76
2021/04/23 00:21:22;;;;;;;10.95;3.88;;;;;;;2.56;100.00;98465.22;4993880;28;20046;-76
2021/04/23 00:23:49;;;;;;;18.35;4.07;;;;;;;2.52;100.00;98461.44;4993279;28;20054;-77
2021/04/23 00:26:16;;;;;;;16.42;4.32;;;;;;;2.51;100.00;98457.94;4991879;28;20106;-77
2021/04/23 00:28:42;;;;;;;14.98;4.03;;;;;;;2.62;100.00;98466.13;5004949;28;20050;-76
2021/04/23 00:31:10;;;;;;;11.93;4.18;;;;;;;2.66;100.00;98459.25;4992727;28;20470;-74
2021/04/23 00:33:37;;;;;;;16.70;4.80;;;;;;;2.64;100.00;98464.81;5009502;28;20042;-77
2021/04/23 00:36:05;;;;;;;15.35;4.35;;;;;;;2.61;100.00;98456.50;5011798;28;20046;-76
2021/04/23 00:38:32;;;;;;;12.68;3.97;;;;;;;2.55;100.00;98454.81;4996402;28;20043;-75
2021/04/23 00:41:07;;;;;;;14.82;4.40;;;;;;;2.56;100.00;98453.72;5008899;28;20069;-76
2021/04/23 00:43:37;;;;;;;12.00;4.20;;;;;;;2.53;100.00;98457.69;4993560;28;20592;-77
2021/04/23 00:46:04;;;;;;;14.60;3.67;;;;;;;2.43;100.00;98447.66;4997879;28;20477;-75
2021/04/23 00:48:33;;;;;;;22.20;4.57;;;;;;;2.38;100.00;98444.09;4997423;28;20046;-76
2021/04/23 00:51:08;;;;;;;18.73;4.30;;;;;;;2.44;100.00;98457.31;5010639;28;20581;-76
2021/04/23 00:53:38;;;;;;;13.35;3.97;;;;;;;2.45;100.00;98447.44;5011612;28;20038;-75
2021/04/23 00:56:08;;;;;;;13.85;4.60;;;;;;;2.44;100.00;98459.97;4997665;28;20050;-76
2021/04/23 00:58:35;;;;;;;13.18;4.40;;;;;;;2.47;100.00;98462.16;5012992;28;20055;-75
2021/04/23 01:01:05;;;;;;;16.27;4.15;;;;;;;2.43;100.00;98461.03;4996705;28;20564;-75
2021/04/23 01:03:32;;;;;;;18.50;4.35;;;;;;;2.39;100.00;98467.09;5009580;28;20038;-75
2021/04/23 01:05:59;;;;;;;14.50;4.38;;;;;;;2.35;100.00;98466.75;5012277;28;20077;-74
2021/04/23 01:08:27;;;;;;;12.90;4.25;;;;;;;2.29;100.00;98465.06;4992419;28;20519;-76
2021/04/23 01:10:59;;;;;;;15.13;4.10;;;;;;;2.20;100.00;98463.84;5010310;28;20046;-76
2021/04/23 01:13:31;;;;;;;13.38;4.10;;;;;;;2.13;100.00;98463.19;4980619;28;20572;-75
2021/04/23 01:16:02;;;;;;;15.38;4.22;;;;;;;2.09;100.00;98464.69;4997807;28;20042;-75
2021/04/23 01:18:30;;;;;;;16.40;4.53;;;;;;;2.10;100.00;98465.50;5009795;28;20098;-76
2021/04/23 01:21:13;;;;;;;17.60;4.10;;;;;;;2.07;100.00;98477.47;4994792;28;20046;-77
2021/04/23 01:23:43;;;;;;;15.90;4.05;;;;;;;2.19;100.00;98467.56;4996620;28;20041;-76
2021/04/23 01:26:11;;;;;;;13.50;4.25;;;;;;;2.19;100.00;98475.59;4996132;28;20081;-76
2021/04/23 01:28:40;;;;;;;14.77;4.40;;;;;;;2.22;100.00;98468.94;4997135;28;20411;-75
2021/04/23 01:31:11;;;;;;;10.82;4.13;;;;;;;2.20;100.00;98469.19;4997422;28;20042;-76
2021/04/23 01:33:39;;;;;;;17.92;4.47;;;;;;;2.25;100.00;98476.47;4997058;28;20513;-77
2021/04/23 01:36:08;;;;;;;14.63;3.80;;;;;;;2.18;100.00;98460.59;5011362;28;20047;-75
2021/04/23 01:38:36;;;;;;;11.60;4.78;;;;;;;2.19;100.00;98464.91;5015705;28;20046;-75
2021/04/23 01:41:04;;;;;;;11.77;4.38;;;;;;;2.15;100.00;98462.94;5018503;28;20058;-76
2021/04/23 01:43:31;;;;;;;14.15;4.70;;;;;;;2.14;100.00;98464.00;4996356;28;20053;-75
2021/04/23 01:45:58;;;;;;;12.93;4.63;;;;;;;2.12;100.00;98469.56;4997056;28;20054;-77
2021/04/23 01:48:24;;;;;;;20.20;5.85;;;;;;;2.07;100.00;98476.66;4996689;28;20042;-76
2021/04/23 01:50:50;;;;;;;15.25;4.07;;;;;;;2.06;100.00;98467.88;4997009;28;20053;-77
2021/04/23 01:53:17;;;;;;;19.65;5.10;;;;;;;2.02;100.00;98463.22;4978725;28;20046;-76
2021/04/23 01:55:44;;;;;;;15.02;4.93;;;;;;;2.15;100.00;98460.25;5010844;28;20047;-76
2021/04/23 01:58:11;;;;;;;20.30;5.32;;;;;;;2.14;100.00;98469.34;4994191;28;20537;-76
2021/04/23 02:00:43;;;;;;;17.42;4.90;;;;;;;2.12;100.00;98477.56;4995454;28;20498;-76
2021/04/23 02:03:11;;;;;;;14.95;5.15;;;;;;;2.08;100.00;98455.09;5010776;28;20477;-77
2021/04/23 02:05:38;;;;;;;16.48;4.63;;;;;;;2.09;100.00;98475.38;4995196;28;20034;-76
2021/04/23 02:08:06;;;;;;;25.98;4.95;;;;;;;2.10;100.00;98463.66;4996119;28;20042;-77
2021/04/23 02:10:36;;;;;;;17.58;5.35;;;;;;;2.12;100.00;98472.22;5007677;28;20042;-76
2021/04/23 02:13:04;;;;;;;17.08;5.60;;;;;;;2.07;100.00;98465.97;4994209;28;20522;-75
2021/04/23 02:15:31;;;;;;;16.02;4.93;;;;;;;2.07;100.00;98472.16;4996728;28;20039;-75
2021/04/23 02:17:59;;;;;;;17.40;5.35;;;;;;;2.02;100.00;98482.72;4995837;28;20050;-77
2021/04/23 02:20:30;;;;;;;16.48;5.18;;;;;;;2.05;100.00;98487.59;4998817;28;20061;-77
2021/04/23 02:22:59;;;;;;;19.60;5.93;;;;;;;2.02;100.00;98485.41;4996962;28;20141;-76
2021/04/23 02:25:26;;;;;;;21.60;5.85;;;;;;;1.97;100.00;98495.19;4999548;28;20426;-76
2021/04/23 02:27:53;;;;;;;18.35;5.38;;;;;;;1.99;100.00;98493.88;5014441;28;20053;-76
2021/04/23 02:30:27;;;;;;;20.80;5.68;;;;;;;1.98;100.00;98494.13;5000096;28;20049;-76
2021/04/23 02:32:54;;;;;;;18.05;5.72;;;;;;;1.95;100.00;98494.59;4999332;28;20042;-77
2021/04/23 02:35:20;;;;;;;20.05;5.40;;;;;;;1.92;100.00;98487.88;4999625;28;20049;-76
2021/04/23 02:37:48;;;;;;;19.25;5.35;;;;;;;1.95;100.00;98487.41;4981546;28;20050;-77
2021/04/23 02:40:18;;;;;;;18.30;5.85;;;;;;;1.89;100.00;98491.03;5020022;28;20050;-77
2021/04/23 02:42:46;;;;;;;22.75;5.50;;;;;;;1.90;100.00;98498.00;5020140;28;20145;-76
2021/04/23 02:45:16;;;;;;;20.48;5.88;;;;;;;1.86;100.00;98486.97;5000024;28;20696;-77
2021/04/23 02:47:45;;;;;;;15.95;5.22;;;;;;;1.97;100.00;98509.34;5020192;28;20049;-77
2021/04/23 02:50:13;;;;;;;22.05;6.10;;;;;;;1.98;100.00;98507.50;4997458;28;20046;-76
2021/04/23 02:52:40;;;;;;;22.02;6.32;;;;;;;1.96;100.00;98506.91;5003635;28;20050;-75
2021/04/23 02:55:07;;;;;;;21.17;6.10;;;;;;;1.91;100.00;98504.94;4996725;28;20049;-76
2021/04/23 02:57:33;;;;;;;22.77;6.00;;;;;;;1.86;100.00;98508.31;5007214;28;20050;-75
2021/04/23 02:59:59;;;;;;;17.55;6.03;;;;;;;1.82;100.00;98507.19;5021341;28;20050;-77
2021/04/23 03:02:26;;;;;;;20.58;7.32;;;;;;;1.78;100.00;98502.56;5020810;28;20048;-75
2021/04/23 03:04:52;;;;;;;19.40;5.68;;;;;;;1.78;100.00;98508.69;5022125;28;20096;-76
2021/04/23 03:07:20;;;;;;;16.60;6.43;;;;;;;1.74;100.00;98510.25;5022386;28;20101;-76
2021/04/23 03:09:48;;;;;;;18.85;6.60;;;;;;;1.72;100.00;98512.34;5021041;28;20049;-76
2021/04/23 03:12:14;;;;;;;25.15;7.25;;;;;;;1.69;100.00;98518.16;5019592;28;20046;-74
2021/04/23 03:14:40;;;;;;;18.60;6.38;;;;;;;1.68;100.00;98521.84;5050113;28;20042;-77
2021/04/23 03:17:07;;;;;;;21.75;6.90;;;;;;;1.62;100.00;98513.97;5017149;28;20046;-77
2021/04/23 03:19:33;;;;;;;19.67;7.03;;;;;;;1.58;100.00;98510.97;5014746;28;20038;-75
2021/04/23 03:21:59;;;;;;;22.40;6.88;;;;;;;1.62;100.00;98516.66;5031884;28;20056;-76
2021/04/23 03:24:25;;;;;;;16.52;6.78;;;;;;;1.62;100.00;98516.66;5019659;28;20040;-76
2021/04/23 03:26:51;;;;;;;28.67;7.82;;;;;;;1.56;100.00;98520.25;5015628;28;20045;-77
2021/04/23 03:29:18;;;;;;;19.67;6.78;;;;;;;1.61;100.00;98515.03;5004180;28;20042;-77
2021/04/23 03:31:45;;;;;;;26.73;7.60;;;;;;;1.54;100.00;98514.34;5037294;28;20077;-75
2021/04/23 03:34:11;;;;;;;19.65;7.25;;;;;;;1.51;100.00;98512.16;5020875;28;20096;-76
2021/04/23 03:36:38;;;;;;;30.15;7.80;;;;;;;1.62;100.00;98524.66;5021850;28;20041;-74
2021/04/23 03:39:06;;;;;;;20.65;7.20;;;;;;;1.66;100.00;98529.28;5021214;28;20030;-74
2021/04/23 03:41:34;;;;;;;22.60;8.57;;;;;;;1.71;100.00;98525.91;5015184;28;20046;-76
2021/04/23 03:44:01;;;;;;;23.75;7.50;;;;;;;1.74;100.00;98525.44;5014241;28;20088;-76
2021/04/23 03:47:02;;;;;;;19.00;6.85;;;;;;;1.81;100.00;98531.44;5019546;28;20030;-77
2021/04/23 03:49:28;;;;;;;30.33;7.20;;;;;;;1.83;100.00;98529.38;5000238;28;20618;-76
2021/04/23 03:51:54;;;;;;;22.65;7.65;;;;;;;1.88;100.00;98532.13;5022287;28;20046;-76
2021/04/23 03:54:20;;;;;;;27.85;7.80;;;;;;;1.88;100.00;98526.78;5039343;28;20429;-76
2021/04/23 03:56:46;;;;;;;29.55;8.38;;;;;;;2.00;100.00;98542.75;5026623;28;20046;-77
2021/04/23 03:59:12;;;;;;;19.17;7.35;;;;;;;2.03;100.00;98547.63;5005758;28;20050;-78
2021/04/23 04:01:38;;;;;;;31.17;8.60;;;;;;;2.10;100.00;98562.47;5003361;28;20258;-78
2021/04/23 04:04:06;;;;;;;27.15;8.98;;;;;;;2.16;100.00;98561.53;5026030;23;20513;-77
2021/04/23 04:06:34;;;;;;;25.00;8.52;;;;;;;2.24;100.00;98552.31;5049297;28;20056;-78
2021/04/23 04:09:00;;;;;;;29.77;8.15;;;;;;;2.36;100.00;98569.91;5053849;28;20593;-78
2021/04/23 04:11:26;;;;;;;20.90;8.25;;;;;;;2.40;100.00;98559.56;5057136;28;20168;-78
2021/04/23 04:13:52;;;;;;;29.83;8.63;;;;;;;2.47;100.00;98578.94;5072379;28;20037;-79
2021/04/23 04:16:19;;;;;;;20.73;8.18;;;;;;;2.58;100.00;98585.28;5057854;28;20048;-79
2021/04/23 04:18:45;;;;;;;29.17;8.70;;;;;;;2.64;100.00;98584.31;5058451;28;20065;-79
2021/04/23 04:21:13;;;;;;;25.05;8.52;;;;;;;2.65;100.00;98583.25;5080226;28;20040;-77
2021/04/23 04:23:39;;;;;;;28.63;8.43;;;;;;;2.71;100.00;98591.13;5066112;28;20045;-78
2021/04/23 04:26:06;;;;;;;28.33;8.57;;;;;;;2.75;100.00;98602.16;5066576;28;20045;-77
2021/04/23 04:28:32;;;;;;;32.95;8.90;;;;;;;2.80;100.00;98602.22;5072307;28;20049;-76
2021/04/23 04:31:00;;;;;;;35.78;9.27;;;;;;;3.02;100.00;98600.50;5051238;28;20041;-76
2021/04/23 04:33:46;;;;;;;24.90;8.90;;;;;;;3.09;100.00;98606.47;5045939;28;20131;-76
2021/04/23 04:36:13;;;;;;;31.83;9.93;;;;;;;3.06;100.00;98599.75;5072934;28;20056;-78
2021/04/23 04:38:40;;;;;;;26.92;9.30;;;;;;;3.08;100.00;98608.34;5056092;28;20066;-77
2021/04/23 04:41:06;;;;;;;34.05;9.45;;;;;;;3.19;100.00;98609.31;5073730;28;20118;-77
2021/04/23 04:43:32;;;;;;;22.77;8.98;;;;;;;3.11;100.00;98602.50;5087665;28;20646;-78
2021/04/23 04:45:59;;;;;;;31.08;9.40;;;;;;;3.17;100.00;98600.72;5054397;28;20041;-77
2021/04/23 04:48:25;;;;;;;34.80;9.23;;;;;;;3.19;100.00;98612.00;5054197;28;20523;-78
2021/04/23 04:50:59;;;;;;;28.92;9.52;;;;;;;3.27;100.00;98611.59;5071362;28;20056;-78
2021/04/23 04:53:27;;;;;;;28.42;9.43;;;;;;;3.30;100.00;98613.78;5053327;28;20049;-77
2021/04/23 04:55:56;;;;;;;25.73;9.30;;;;;;;3.32;100.00;98616.19;5054642;28;20037;-77
2021/04/23 04:58:26;;;;;;;22.38;8.98;;;;;;;3.35;100.00;98621.91;5053882;28;20044;-78
2021/04/23 05:00:52;;;;;;;30.60;9.63;;;;;;;3.40;100.00;98616.63;5054623;28;20048;-78
2021/04/23 05:03:19;;;;;;;32.92;11.45;;;;;;;3.43;100.00;98621.44;5060298;28;20048;-78
2021/04/23 05:05:45;;;;;;;35.58;9.70;;;;;;;3.49;100.00;98612.47;5077761;28;20048;-77
2021/04/23 05:08:11;;;;;;;31.20;10.20;;;;;;;3.51;100.00;98621.03;5075664;28;20045;-77
2021/04/23 05:10:39;;;;;;;29.75;10.40;;;;;;;3.52;100.00;98620.00;5056979;28;20052;-78
2021/04/23 05:13:05;;;;;;;25.35;9.20;;;;;;;3.63;100.00;98618.28;5091505;28;20474;-78
2021/04/23 05:15:31;;;;;;;30.70;10.23;;;;;;;3.65;100.00;98627.69;5075641;28;20041;-77
2021/04/23 05:17:58;;;;;;;27.27;9.38;;;;;;;3.69;100.00;98631.50;5068219;28;20048;-78
2021/04/23 05:20:28;;;;;;;40.20;10.07;;;;;;;3.68;100.00;98629.88;5059889;28;20045;-80
2021/04/23 05:22:54;;;;;;;31.17;9.68;;;;;;;3.74;100.00;98644.94;5062006;28;20048;-77
2021/04/23 05:25:23;;;;;;;28.73;9.75;;;;;;;3.76;100.00;98626.78;5083751;28;20056;-78
2021/04/23 05:27:49;;;;;;;29.63;9.25;;;;;;;3.79;100.00;98642.34;5080617;28;20052;-79
2021/04/23 05:30:19;;;;;;;26.65;9.13;;;;;;;3.84;100.00;98643.47;5068815;28;20052;-79
2021/04/23 05:32:47;;;;;;;25.88;9.20;;;;;;;3.89;100.00;98630.97;5036377;28;20064;-79
2021/04/23 05:35:16;;;;;;;26.60;8.85;;;;;;;4.04;100.00;98647.25;5087268;28;20182;-79
2021/04/23 05:37:43;;;;;;;29.02;9.10;;;;;;;4.17;100.00;98651.44;5054513;28;20060;-78
2021/04/23 05:40:14;;;;;;;30.25;8.98;;;;;;;4.16;100.00;98644.44;5067249;28;20108;-79
2021/04/23 05:42:43;;;;;;;22.98;8.27;;;;;;;4.19;100.00;98647.44;5049180;28;20038;-79
2021/04/23 05:45:11;;;;;;;30.95;9.07;;;;;;;4.24;100.00;98644.81;5031876;28;20863;-78
2021/04/23 05:47:39;;;;;;;24.45;9.00;;;;;;;4.21;100.00;98647.19;5044086;28;20053;-78
2021/04/23 05:50:08;;;;;;;26.13;8.70;;;;;;;4.39;100.00;98655.72;5053353;28;20052;-78
2021/04/23 05:52:34;;;;;;;27.42;9.30;;;;;;;4.35;100.00;98656.50;5081643;28;20053;-78
2021/04/23 05:55:00;;;;;;;29.10;8.98;;;;;;;4.38;100.00;98659.50;5067091;28;20744;-78
2021/04/23 05:57:27;;;;;;;25.55;8.38;;;;;;;4.46;100.00;98655.56;5056075;28;20049;-78
2021/04/23 05:59:53;;;;;;;28.73;8.82;;;;;;;4.52;100.00;98662.56;5054039;28;20083;-78
2021/04/23 06:02:19;;;;;;;26.30;8.57;;;;;;;4.58;100.00;98656.22;5069533;28;20087;-78
2021/04/23 06:04:45;;;;;;;25.35;8.45;;;;;;;4.62;100.00;98648.50;5068539;28;20045;-77
2021/04/23 06:07:11;;;;;;;29.98;8.68;;;;;;;4.46;100.00;98652.06;5057196;28;20059;-78
2021/04/23 06:09:37;;;;;;;20.08;8.07;;;;;;;4.54;100.00;98654.31;5081783;28;20051;-78
2021/04/23 06:12:04;;;;;;;30.40;8.57;;;;;;;4.53;100.00;98647.31;5047821;28;20053;-78
2021/04/23 06:14:31;;;;;;;25.55;8.38;;;;;;;4.70;100.00;98661.44;5052965;28;20659;-77
2021/04/23 06:16:59;;;;;;;25.08;8.18;;;;;;;4.72;100.00;98653.97;5061999;28;20041;-78
2021/04/23 06:19:25;;;;;;;29.27;8.63;;;;;;;4.65;100.00;98666.75;5056567;28;20051;-78
2021/04/23 06:21:51;;;;;;;28.70;8.52;;;;;;;4.64;100.00;98665.16;5055922;28;20040;-78
2021/04/23 06:24:17;;;;;;;28.85;8.88;;;;;;;4.86;100.00;98669.41;5054458;28;20048;-78
2021/04/23 06:26:44;;;;;;;25.45;9.20;;;;;;;4.97;100.00;98663.09;5068941;23;20129;-78
2021/04/23 06:29:10;;;;;;;32.17;8.40;;;;;;;5.09;100.00;98662.09;5070887;28;20503;-77
2021/04/23 06:31:36;;;;;;;22.60;7.95;;;;;;;5.29;100.00;98663.09;5054395;28;20072;-78
2021/04/23 06:34:03;;;;;;;31.55;7.75;;;;;;;5.27;100.00;98665.22;5070827;28;20048;-79
2021/04/23 06:36:29;;;;;;;26.30;8.77;;;;;;;5.20;100.00;98663.81;5083174;28;20052;-78
2021/04/23 06:38:55;;;;;;;27.08;7.95;;;;;;;5.44;100.00;98671.31;5084244;28;20041;-78
2021/04/23 06:41:21;;;;;;;22.48;6.70;;;;;;;5.29;100.00;98657.72;5083245;28;20518;-78
2021/04/23 06:43:47;;;;;;;21.15;7.53;;;;;;;5.38;100.00;98658.91;5063951;28;20045;-79
2021/04/23 06:46:13;;;;;;;21.63;7.65;;;;;;;5.43;100.00;98661.63;5080892;28;20041;-80
2021/04/23 06:48:42;;;;;;;26.98;7.32;;;;;;;5.49;100.00;98663.28;5098622;28;20047;-79
2021/04/23 06:51:09;;;;;;;22.13;8.02;;;;;;;5.62;100.00;98664.72;5084760;28;20043;-78
2021/04/23 06:53:35;;;;;;;19.45;7.47;;;;;;;5.60;100.00;98661.50;5100221;28;20043;-79
2021/04/23 06:56:02;;;;;;;22.23;6.90;;;;;;;5.69;100.00;98662.63;5099752;28;20044;-80
2021/04/23 06:58:29;;;;;;;28.67;7.22;;;;;;;5.74;100.00;98662.66;5078925;28;20051;-79
2021/04/23 07:00:56;;;;;;;24.27;7.18;;;;;;;5.53;100.00;98666.25;5078738;28;20048;-79
2021/04/23 07:03:22;;;;;;;23.65;7.38;;;;;;;5.76;100.00;98668.56;5075996;28;20055;-78
2021/04/23 07:05:49;;;;;;;23.60;7.45;;;;;;;5.78;100.00;98671.00;5090848;28;20062;-78
2021/04/23 07:08:15;;;;;;;25.35;7.10;;;;;;;5.76;100.00;98679.31;5089874;28;20491;-77
2021/04/23 07:10:42;;;;;;;21.98;7.78;;;;;;;5.56;100.00;98671.94;5072930;28;20460;-77
2021/04/23 07:13:09;;;;;;;18.05;7.05;;;;;;;5.46;100.00;98684.47;5072505;28;20515;-77
2021/04/23 07:15:36;;;;;;;21.45;7.35;;;;;;;5.56;100.00;98673.81;5091234;28;20051;-77
2021/04/23 07:18:03;;;;;;;20.50;7.60;;;;;;;5.50;100.00;98675.63;5072677;28;20055;-79
2021/04/23 07:20:34;;;;;;;16.15;7.43;;;;;;;5.42;100.00;98678.78;5091198;28;20416;-77
2021/04/23 07:23:01;;;;;;;22.45;7.55;;;;;;;5.42;100.00;98678.78;5055740;28;20441;-78
2021/04/23 07:25:27;;;;;;;21.30;7.82;;;;;;;5.52;100.00;98683.44;5096794;28;20058;-80
2021/04/23 07:27:57;;;;;;;17.90;7.45;;;;;;;5.57;100.00;98676.22;5090649;28;20074;-77
2021/04/23 07:30:27;;;;;;;20.17;7.30;;;;;;;5.58;100.00;98682.41;5073115;28;20044;-77
2021/04/23 07:32:54;;;;;;;22.58;8.00;;;;;;;5.45;100.00;98678.28;5089663;28;20047;-77
2021/04/23 07:35:22;;;;;;;22.48;8.48;;;;;;;5.52;100.00;98675.38;5072756;28;20043;-79
2021/04/23 07:37:48;;;;;;;23.02;8.07;;;;;;;5.64;100.00;98681.38;5072670;28;20059;-78
2021/04/23 07:40:17;;;;;;;19.83;7.20;;;;;;;5.73;100.00;98676.34;5089536;28;20036;-78
2021/04/23 07:42:44;;;;;;;19.92;7.03;;;;;;;5.55;100.00;98675.66;5074113;28;20491;-79
2021/04/23 07:45:11;;;;;;;15.32;7.57;;;;;;;5.53;100.00;98695.78;5074790;28;20036;-79
2021/04/23 07:47:38;;;;;;;17.95;6.90;;;;;;;5.66;100.00;98684.63;5093505;28;20078;-78
2021/04/23 07:50:09;;;;;;;22.98;7.20;;;;;;;5.70;100.00;98683.06;5078348;28;20047;-79
2021/04/23 07:52:38;;;;;;;15.25;7.10;;;;;;;5.55;100.00;98688.28;5074422;28;20044;-78
2021/04/23 07:55:06;;;;;;;19.13;7.22;;;;;;;5.74;100.00;98684.16;5074608;28;20072;-78
2021/04/23 07:57:34;;;;;;;19.30;8.27;;;;;;;5.53;100.00;98682.38;5091074;28;20055;-79
2021/04/23 08:00:00;;;;;;;23.73;6.97;;;;;;;5.42;100.00;98688.75;5074259;28;20053;-79
2021/04/23 08:02:26;;;;;;;22.88;7.63;;;;;;;5.64;100.00;98692.13;5088348;28;20044;-78
2021/04/23 08:04:52;;;;;;;22.73;7.55;;;;;;;5.66;100.00;98700.75;5071200;28;20041;-78
2021/04/23 08:07:41;;;;;;;25.88;8.00;;;;;;;5.80;100.00;98688.50;5073151;28;20120;-78
2021/04/23 08:10:11;;;;;;;21.05;8.05;;;;;;;5.83;100.00;98685.31;5071889;28;20048;-79
2021/04/23 08:12:38;;;;;;;21.60;8.30;;;;;;;6.11;100.00;98693.03;5071508;28;20044;-78
2021/04/23 08:15:05;;;;;;;20.08;8.15;;;;;;;5.95;100.00;98694.00;5088772;28;20032;-78
2021/04/23 08:17:31;;;;;;;21.42;6.97;;;;;;;6.05;100.00;98693.25;5070578;28;20101;-78
2021/04/23 08:19:57;;;;;;;17.95;7.43;;;;;;;6.04;100.00;98697.81;5070675;28;20060;-76
2021/04/23 08:22:25;;;;;;;19.25;7.85;;;;;;;6.12;100.00;98694.63;5068601;28;20041;-77
2021/04/23 08:24:51;;;;;;;22.50;8.85;;;;;;;5.93;100.00;98692.63;5086829;28;20305;-77
2021/04/23 08:27:17;;;;;;;18.60;7.78;;;;;;;5.96;100.00;98694.81;5079412;28;20399;-78
2021/04/23 08:29:43;;;;;;;18.25;6.88;;;;;;;6.10;100.00;98710.22;5092420;28;20048;-77
2021/04/23 08:32:09;;;;;;;20.80;7.65;;;;;;;6.22;100.00;98710.81;5072504;28;20047;-79
2021/04/23 08:34:35;;;;;;;13.77;6.72;;;;;;;6.16;100.00;98700.31;5091189;28;20047;-79
2021/04/23 08:37:02;;;;;;;20.90;6.57;;;;;;;6.07;100.00;98697.28;5089653;28;20492;-78
2021/04/23 08:39:28;;;;;;;20.67;6.82;;;;;;;6.06;100.00;98695.69;5073253;28;20093;-80
2021/04/23 08:41:54;;;;;;;15.63;6.00;;;;;;;6.35;100.00;98695.31;5092365;28;20043;-78
2021/04/23 08:44:20;;;;;;;16.13;6.57;;;;;;;6.23;100.00;98690.94;5056511;28;20047;-77
2021/04/23 08:46:47;;;;;;;18.20;5.93;;;;;;;6.23;100.00;98692.81;5073582;28;20499;-79
2021/04/23 08:49:16;;;;;;;15.57;5.07;;;;;;;6.36;100.00;98694.22;5090589;28;20056;-78
2021/04/23 08:51:44;;;;;;;18.23;6.32;;;;;;;6.40;100.00;98703.41;5071831;28;20040;-78
2021/04/23 08:54:10;;;;;;;20.98;6.53;;;;;;;6.37;100.00;98702.06;5072790;28;20046;-78
2021/04/23 08:56:36;;;;;;;17.27;5.97;;;;;;;6.69;100.00;98694.66;5072404;28;20040;-78
2021/04/23 08:59:03;;;;;;;16.00;5.70;;;;;;;6.62;100.00;98698.66;5072354;28;20044;-78
2021/04/23 09:01:29;;;;;;;15.13;6.30;;;;;;;6.57;100.00;98695.94;5089930;28;20058;-79
2021/04/23 09:03:56;;;;;;;22.95;5.80;;;;;;;6.82;100.00;98704.09;5054985;28;20044;-77
2021/04/23 09:06:26;;;;;;;20.35;6.05;;;;;;;6.69;100.00;98693.81;5056472;28;20048;-79
2021/04/23 09:08:52;;;;;;;14.43;4.80;;;;;;;6.60;100.00;98695.44;5086253;28;20036;-78
2021/04/23 09:11:33;;;;;;;20.30;6.20;;;;;;;6.41;100.00;98699.63;5092240;28;20123;-79
2021/04/23 09:14:03;;;;;;;17.65;5.50;;;;;;;6.52;100.00;98691.34;5090502;28;20449;-79
2021/04/23 09:16:44;;;;;;;14.82;5.70;;;;;;;6.35;100.00;98698.00;5085813;28;20499;-78
2021/04/23 09:19:23;;;;;;;12.73;5.43;;;;;;;6.51;100.00;98702.38;5072807;28;20044;-77
2021/04/23 09:21:59;;;;;;;14.77;5.18;;;;;;;6.60;100.00;98708.88;5068464;28;20589;-79
2021/04/23 09:24:36;;;;;;;22.95;5.68;;;;;;;6.52;100.00;98710.19;5068393;28;20037;-77
2021/04/23 09:27:13;;;;;;;13.18;5.25;;;;;;;6.52;100.00;98706.69;5072388;28;20052;-78
2021/04/23 09:29:43;;;;;;;11.57;4.57;;;;;;;6.64;100.00;98702.69;5085443;28;20440;-78
2021/04/23 09:32:14;;;;;;;10.77;4.47;;;;;;;6.77;100.00;98699.53;5071175;28;20063;-78
2021/04/23 09:34:46;;;;;;;14.30;4.88;;;;;;;6.76;100.00;98695.19;5078971;28;20036;-78
2021/04/23 09:37:14;;;;;;;15.05;4.80;;;;;;;6.77;100.00;98698.72;5075372;28;20051;-78
2021/04/23 09:39:40;;;;;;;11.82;4.47;;;;;;;6.45;100.00;98706.13;5094327;28;20043;-79
2021/04/23 09:42:11;;;;;;;11.15;4.15;;;;;;;6.51;100.00;98700.50;5074792;28;20040;-81
2021/04/23 09:44:40;;;;;;;10.93;3.60;;;;;;;6.45;100.00;98706.94;5073666;28;20048;-78
2021/04/23 09:47:18;;;;;;;10.05;3.53;;;;;;;6.47;100.00;98712.84;5079157;28;20028;-79
2021/04/23 09:49:54;;;;;;;13.63;3.90;;;;;;;6.44;100.00;98707.19;5078284;28;20048;-77
2021/04/23 09:52:21;;;;;;;11.13;3.88;;;;;;;6.37;100.00;98718.19;5090886;28;20088;-77
2021/04/23 09:54:57;;;;;;;12.35;4.10;;;;;;;6.47;100.00;98714.72;5073654;28;20048;-78
2021/04/23 09:57:36;;;;;;;12.82;4.20;;;;;;;6.52;100.00;98718.25;5100002;28;20036;-77
2021/04/23 10:00:08;;;;;;;14.75;4.68;;;;;;;6.55;100.00;98723.13;5092956;28;20081;-78
2021/04/23 10:02:37;;;;;;;13.07;3.97;;;;;;;6.41;100.00;98723.84;5063975;28;20348;-78
2021/04/23 10:05:06;;;;;;;14.77;4.70;;;;;;;6.55;100.00;98723.13;5032021;28;20048;-78
2021/04/23 10:07:34;;;;;;;10.60;4.03;;;;;;;6.76;100.00;98722.09;5033308;28;20132;-78
2021/04/23 10:10:09;;;;;;;8.70;4.00;;;;;;;7.08;100.00;98721.13;5077952;28;20052;-76
2021/04/23 10:12:43;;;;;;;11.27;4.30;;;;;;;6.89;100.00;98727.00;5059777;28;20048;-79
2021/04/23 10:15:28;;;;;;;17.30;4.13;;;;;;;7.11;100.00;98731.38;5051847;28;20041;-79
2021/04/23 10:17:59;;;;;;;11.98;4.32;;;;;;;6.89;100.00;98726.22;5085884;28;20419;-78
2021/04/23 10:20:31;;;;;;;11.63;4.20;;;;;;;6.76;100.00;98724.00;5070499;28;20045;-79
2021/04/23 10:22:59;;;;;;;13.80;4.25;;;;;;;6.81;100.00;98714.06;5090905;28;20048;-79
2021/04/23 10:25:28;;;;;;;11.38;4.22;;;;;;;6.81;100.00;98726.72;5063064;28;20037;-78
2021/04/23 10:27:56;;;;;;;9.25;4.05;;;;;;;7.12;100.00;98731.13;5057470;28;20044;-78
2021/04/23 10:30:25;;;;;;;13.93;4.30;;;;;;;7.24;100.00;98723.63;5070538;28;20094;-77
2021/04/23 10:33:16;;;;;;;16.73;4.97;;;;;;;7.13;100.00;98732.72;5074789;28;20059;-78
2021/04/23 10:35:45;;;;;;;7.18;3.20;;;;;;;7.07;100.00;98728.41;5072734;28;20411;-79
2021/04/23 10:38:15;;;;;;;14.57;4.78;;;;;;;6.93;100.00;98732.69;5063876;28;20036;-78
2021/04/23 10:40:44;;;;;;;17.15;4.18;;;;;;;6.90;100.00;98743.97;5082990;28;20051;-78
2021/04/23 10:43:16;;;;;;;11.57;4.50;;;;;;;7.03;100.00;98748.03;5069695;28;20059;-79
2021/04/23 10:45:50;;;;;;;15.13;4.88;;;;;;;7.35;100.00;98738.72;5094982;28;20194;-79
2021/04/23 10:48:16;;;;;;;9.55;4.28;;;;;;;7.58;100.00;98744.66;5054912;28;20048;-80
2021/04/23 10:50:45;;;;;;;10.02;4.25;;;;;;;7.89;100.00;98739.03;5068443;28;20047;-79
2021/04/23 10:53:13;;;;;;;13.27;4.78;;;;;;;7.76;100.00;98736.06;5069858;28;20522;-79
2021/04/23 10:56:06;;;;;;;17.60;4.65;;;;;;;7.68;100.00;98723.94;5071313;28;20067;-79
2021/04/23 10:58:32;;;;;;;13.93;4.80;;;;;;;7.90;100.00;98737.94;5070149;28;20064;-79
2021/04/23 11:01:18;;;;;;;12.55;4.18;;;;;;;8.30;100.00;98741.72;5072720;28;20089;-79
2021/04/23 11:03:57;;;;;;;;;;;;;;;8.14;100.00;98735.50;5081009;28;20507;-77
2021/04/23 11:06:23;;;;;;;13.80;4.35;;;;;;;8.92;100.00;98735.84;5055905;28;19932;-78
2021/04/23 11:09:02;;;;;;;17.05;4.35;;;;;;;9.10;93.80;98737.91;5073146;28;20044;-79
2021/04/23 11:11:34;;;;;;;10.68;3.78;;;;;;;8.63;89.49;98735.69;5081132;28;20140;-79
2021/04/23 11:14:22;;;;;;;9.32;4.07;;;;;;;8.64;96.36;98740.00;5068735;28;20075;-78
2021/04/23 11:16:50;;;;;;;12.02;3.83;;;;;;;8.35;95.62;98739.00;5063532;28;20164;-78
2021/04/23 11:19:19;;;;;;;8.50;3.50;;;;;;;8.32;98.22;98737.66;5084145;28;20037;-78
2021/04/23 11:21:53;;;;;;;14.02;4.30;;;;;;;8.31;100.00;98740.63;5072137;28;20063;-79
2021/04/23 11:24:26;;;;;;;7.85;3.65;;;;;;;8.05;100.00;98739.84;5071003;28;20056;-79
2021/04/23 11:26:53;;;;;;;10.05;4.03;;;;;;;8.21;100.00;98732.53;5055906;28;20059;-79
2021/04/23 11:29:46;;;;;;;12.00;4.28;;;;;;;8.58;100.00;98741.91;5058484;28;20048;-78
2021/04/23 11:32:27;;;;;;;12.77;4.25;;;;;;;9.03;92.01;98740.94;5057936;28;20060;-78
2021/04/23 11:35:00;;;;;;;8.98;3.78;;;;;;;9.92;78.49;98737.09;5092345;28;20040;-79